Time;durP1;ratioP1;P1;durP2;ratioP2;P2;SDS_P1;SDS_P2;PMS_P1;PMS_P2;Temp;Humidity;BMP_temperature;BMP_pressure;BME280_temperature;BME280_humidity;BME280_pressure;Samples;Min_cycle;Max_cycle;Signal;HPM_P1;HPM_P2
2022/11/04 00:01:33;;;;;;;2.65;1.98;;;;;;;;;;4972437;28;20034;-62
2022/11/04 00:03:58;;;;;;;4.43;2.00;;;;;;;;;;4973714;28;20026;-62
2022/11/04 00:06:24;;;;;;;3.20;2.20;;;;;;;;;;4987932;28;20049;-61
2022/11/04 00:08:55;;;;;;;3.40;2.30;;;;;;;;;;4991178;28;20035;-61
2022/11/04 00:14:06;;;;;;;3.67;1.90;;;;;;;;;;4998092;28;20041;-62
2022/11/04 00:19:16;;;;;;;3.95;2.10;;;;;;;;;;4975435;28;20038;-61
2022/11/04 00:29:52;;;;;;;3.42;2.20;;;;;;;;;;4989480;28;20069;-61
2022/11/04 00:35:01;;;;;;;4.22;2.10;;;;;;;;;;4987977;28;20102;-61
2022/11/04 00:37:26;;;;;;;5.32;2.25;;;;;;;;;;4987042;28;20071;-61
2022/11/04 00:39:52;;;;;;;4.57;2.28;;;;;;;;;;4985060;28;20030;-62
2022/11/04 00:42:17;;;;;;;3.75;1.90;;;;;;;;;;4985923;28;20039;-62
2022/11/04 00:44:42;;;;;;;5.70;2.80;;;;;;;;;;4991616;28;20026;-61
2022/11/04 00:47:08;;;;;;;5.00;2.30;;;;;;;;;;4979691;28;20073;-61
2022/11/04 00:49:33;;;;;;;4.88;2.33;;;;;;;;;;4989627;28;20942;-61
2022/11/04 00:51:58;;;;;;;3.03;1.80;;;;;;;;;;4990070;28;20041;-61
2022/11/04 00:54:24;;;;;;;3.38;1.73;;;;;;;;;;4989964;28;20427;-61
2022/11/04 00:56:49;;;;;;;4.15;1.90;;;;;;;;;;4987526;28;20040;-61
2022/11/04 00:59:15;;;;;;;3.17;2.10;;;;;;;;;;5011429;28;20030;-60
2022/11/04 01:01:40;;;;;;;3.63;2.20;;;;;;;;;;5002553;28;20069;-61
2022/11/04 01:04:06;;;;;;;6.38;2.80;;;;;;;;;;5010261;28;20224;-60
2022/11/04 01:06:31;;;;;;;4.75;2.80;;;;;;;;;;5001708;28;20086;-61
2022/11/04 01:08:59;;;;;;;4.60;2.63;;;;;;;;;;4989680;28;20038;-60
2022/11/04 01:11:27;;;;;;;5.95;2.83;;;;;;;;;;4990888;28;20038;-60
2022/11/04 01:13:52;;;;;;;6.10;2.70;;;;;;;;;;4989609;28;20121;-62
2022/11/04 01:16:18;;;;;;;4.65;2.70;;;;;;;;;;4986517;28;20109;-62
2022/11/04 01:18:43;;;;;;;6.90;3.40;;;;;;;;;;4988622;28;20084;-61
2022/11/04 01:21:14;;;;;;;5.18;3.05;;;;;;;;;;5003188;28;20037;-62
2022/11/04 01:23:41;;;;;;;6.00;3.10;;;;;;;;;;4991350;28;20042;-61
2022/11/04 01:26:18;;;;;;;6.80;2.88;;;;;;;;;;4989812;28;20038;-62
2022/11/04 01:28:44;;;;;;;5.15;2.35;;;;;;;;;;4992138;28;20043;-62
2022/11/04 01:31:22;;;;;;;4.82;2.72;;;;;;;;;;4985265;28;20093;-61
2022/11/04 01:33:48;;;;;;;6.28;2.50;;;;;;;;;;4990898;28;20053;-61
2022/11/04 01:36:14;;;;;;;5.20;2.47;;;;;;;;;;4982906;28;20395;-61
2022/11/04 01:38:39;;;;;;;5.45;2.78;;;;;;;;;;4988952;28;20026;-61
2022/11/04 01:41:06;;;;;;;5.63;2.65;;;;;;;;;;4992672;28;20030;-61
2022/11/04 01:43:49;;;;;;;6.03;3.03;;;;;;;;;;4992686;28;20037;-62
2022/11/04 01:46:37;;;;;;;5.43;3.05;;;;;;;;;;4983457;28;20407;-60
2022/11/04 01:49:23;;;;;;;6.28;2.80;;;;;;;;;;5002159;28;20129;-62
2022/11/04 01:51:53;;;;;;;4.43;2.65;;;;;;;;;;5003560;28;20096;-61
2022/11/04 01:54:19;;;;;;;5.50;3.40;;;;;;;;;;5012551;28;20030;-62
2022/11/04 01:56:46;;;;;;;6.00;3.58;;;;;;;;;;5000014;28;20045;-62
2022/11/04 01:59:19;;;;;;;7.30;3.70;;;;;;;;;;4986896;28;20047;-60
2022/11/04 02:01:45;;;;;;;6.28;3.58;;;;;;;;;;4982396;28;20033;-61
2022/11/04 02:04:25;;;;;;;6.07;2.90;;;;;;;;;;5012093;28;20383;-61
2022/11/04 02:07:02;;;;;;;5.40;3.58;;;;;;;;;;5003150;28;20042;-62
2022/11/04 02:09:29;;;;;;;6.20;3.40;;;;;;;;;;4995035;28;20112;-61
2022/11/04 02:14:40;;;;;;;7.03;3.95;;;;;;;;;;5005023;28;20033;-61
2022/11/04 02:17:17;;;;;;;5.53;3.72;;;;;;;;;;4993356;28;20042;-62
2022/11/04 02:20:15;;;;;;;6.35;3.10;;;;;;;;;;5013589;28;20101;-61
2022/11/04 02:23:02;;;;;;;5.47;3.80;;;;;;;;;;4985874;28;20124;-60
2022/11/04 02:25:43;;;;;;;7.32;4.25;;;;;;;;;;4990748;28;20057;-62
2022/11/04 02:28:11;;;;;;;3.85;2.67;;;;;;;;;;4982860;28;20403;-61
2022/11/04 02:31:10;;;;;;;6.63;3.72;;;;;;;;;;4996599;28;20026;-61
2022/11/04 02:33:45;;;;;;;7.35;4.07;;;;;;;;;;4992125;28;20121;-60
2022/11/04 02:36:46;;;;;;;5.45;2.83;;;;;;;;;;4984873;28;20042;-60
2022/11/04 02:39:40;;;;;;;7.03;4.10;;;;;;;;;;4999154;28;20052;-60
2022/11/04 02:42:16;;;;;;;5.85;3.70;;;;;;;;;;4994806;28;20034;-60
2022/11/04 02:44:49;;;;;;;5.60;3.10;;;;;;;;;;4989785;28;20115;-61
2022/11/04 02:47:23;;;;;;;7.03;4.22;;;;;;;;;;4986904;28;20080;-61
2022/11/04 02:50:01;;;;;;;7.30;3.90;;;;;;;;;;5004290;28;20534;-60
2022/11/04 02:52:39;;;;;;;7.50;4.15;;;;;;;;;;4992467;28;20034;-60
2022/11/04 02:55:14;;;;;;;4.18;2.65;;;;;;;;;;5008178;28;20026;-61
2022/11/04 02:57:42;;;;;;;9.18;3.97;;;;;;;;;;4992124;28;20065;-61
2022/11/04 03:00:12;;;;;;;6.07;3.25;;;;;;;;;;5010876;28;20036;-60
2022/11/04 03:02:48;;;;;;;8.55;3.55;;;;;;;;;;5008116;28;20483;-60
2022/11/04 03:05:18;;;;;;;6.28;3.83;;;;;;;;;;4995794;28;20038;-59
2022/11/04 03:07:47;;;;;;;7.65;3.33;;;;;;;;;;4990915;28;20612;-60
2022/11/04 03:10:21;;;;;;;8.20;3.83;;;;;;;;;;4989768;28;20049;-62
2022/11/04 03:13:10;;;;;;;6.35;3.15;;;;;;;;;;4974683;28;20288;-61
2022/11/04 03:15:39;;;;;;;5.00;2.90;;;;;;;;;;4984469;28;20482;-60
2022/11/04 03:18:45;;;;;;;5.53;3.63;;;;;;;;;;4982391;28;20070;-61
2022/11/04 03:21:14;;;;;;;6.32;2.97;;;;;;;;;;4993099;28;20102;-61
2022/11/04 03:23:40;;;;;;;6.50;3.22;;;;;;;;;;4980807;28;20041;-61
2022/11/04 03:26:22;;;;;;;8.38;2.70;;;;;;;;;;5013130;28;20109;-61
2022/11/04 03:29:00;;;;;;;6.05;2.70;;;;;;;;;;5006749;28;20124;-60
2022/11/04 03:31:39;;;;;;;9.05;2.00;;;;;;;;;;5012491;28;20045;-61
2022/11/04 03:34:04;;;;;;;4.65;2.47;;;;;;;;;;4994743;28;20527;-60
2022/11/04 03:36:30;;;;;;;9.70;2.80;;;;;;;;;;4991864;28;20180;-61
2022/11/04 03:38:55;;;;;;;3.58;2.35;;;;;;;;;;4995275;28;20030;-62
2022/11/04 03:41:37;;;;;;;7.55;2.55;;;;;;;;;;4991596;28;20472;-60
2022/11/04 03:44:03;;;;;;;4.38;2.47;;;;;;;;;;5005712;28;20506;-60
2022/11/04 03:46:29;;;;;;;6.10;2.50;;;;;;;;;;4992233;28;20092;-62
2022/11/04 03:48:55;;;;;;;7.20;2.50;;;;;;;;;;4996618;28;20038;-61
2022/11/04 03:51:20;;;;;;;3.67;1.75;;;;;;;;;;4992155;28;20479;-60
2022/11/04 03:53:46;;;;;;;6.97;2.80;;;;;;;;;;4982397;28;20168;-60
2022/11/04 03:56:34;;;;;;;7.47;2.28;;;;;;;;;;4989849;28;20046;-60
2022/11/04 03:59:22;;;;;;;5.60;2.67;;;;;;;;;;4973473;28;20066;-60
2022/11/04 04:01:50;;;;;;;5.07;1.92;;;;;;;;;;4972241;28;20650;-62
2022/11/04 04:04:26;;;;;;;7.47;2.35;;;;;;;;;;5005014;28;20037;-61
2022/11/04 04:06:56;;;;;;;4.20;2.35;;;;;;;;;;4991004;28;20081;-61
2022/11/04 04:09:49;;;;;;;5.93;2.50;;;;;;;;;;5008137;28;20441;-61
2022/11/04 04:12:36;;;;;;;6.43;2.45;;;;;;;;;;4981718;28;20030;-61
2022/11/04 04:15:16;;;;;;;7.70;2.60;;;;;;;;;;4990569;28;20039;-61
2022/11/04 04:17:49;;;;;;;5.63;2.10;;;;;;;;;;4991763;28;20109;-60
2022/11/04 04:20:19;;;;;;;6.13;2.00;;;;;;;;;;5004231;28;20454;-61
2022/11/04 04:22:51;;;;;;;6.10;2.20;;;;;;;;;;4972211;28;20041;-61
2022/11/04 04:28:04;;;;;;;3.92;2.10;;;;;;;;;;4974519;28;20044;-61
2022/11/04 04:30:30;;;;;;;8.25;2.30;;;;;;;;;;4990252;28;20042;-62
2022/11/04 04:33:01;;;;;;;7.90;2.35;;;;;;;;;;4980805;28;20034;-61
2022/11/04 04:35:42;;;;;;;7.07;2.20;;;;;;;;;;4977421;28;20045;-63
2022/11/04 04:46:59;;;;;;;7.32;2.25;;;;;;;;;;4986371;28;20041;-60
2022/11/04 04:49:33;;;;;;;8.02;2.25;;;;;;;;;;4987844;28;20403;-61
2022/11/04 04:52:00;;;;;;;4.95;1.90;;;;;;;;;;4976246;28;21625;-60
2022/11/04 04:54:26;;;;;;;6.18;2.60;;;;;;;;;;4999106;28;20106;-61
2022/11/04 04:56:51;;;;;;;6.78;2.75;;;;;;;;;;4990413;28;20191;-61
2022/11/04 04:59:16;;;;;;;6.40;2.00;;;;;;;;;;5009811;28;20034;-61
2022/11/04 05:01:42;;;;;;;5.88;2.03;;;;;;;;;;4987126;28;20042;-62
2022/11/04 05:04:07;;;;;;;8.80;2.30;;;;;;;;;;4992914;28;20042;-61
2022/11/04 05:06:33;;;;;;;6.60;2.00;;;;;;;;;;4982357;28;20452;-62
2022/11/04 05:08:58;;;;;;;10.52;2.03;;;;;;;;;;4982766;28;20047;-61
2022/11/04 05:11:23;;;;;;;4.25;1.90;;;;;;;;;;4990078;28;20031;-61
2022/11/04 05:13:49;;;;;;;7.80;2.40;;;;;;;;;;4991692;28;20064;-61
2022/11/04 05:16:14;;;;;;;5.13;2.25;;;;;;;;;;4975992;28;20040;-61
2022/11/04 05:18:39;;;;;;;8.95;2.72;;;;;;;;;;4981299;28;20030;-60
2022/11/04 05:21:07;;;;;;;9.73;2.28;;;;;;;;;;5000782;28;20069;-62
2022/11/04 05:23:35;;;;;;;6.15;2.15;;;;;;;;;;5012168;28;20478;-61
2022/11/04 05:26:01;;;;;;;6.85;2.47;;;;;;;;;;5014618;28;20072;-61
2022/11/04 05:28:26;;;;;;;10.60;2.50;;;;;;;;;;5007404;28;20050;-62
2022/11/04 05:30:52;;;;;;;8.00;2.38;;;;;;;;;;5001432;28;20042;-62
2022/11/04 05:33:17;;;;;;;8.88;2.60;;;;;;;;;;5012914;28;20059;-62
2022/11/04 05:35:43;;;;;;;10.23;3.00;;;;;;;;;;5012378;28;20109;-62
2022/11/04 05:38:08;;;;;;;7.85;3.78;;;;;;;;;;5014588;28;20029;-61
2022/11/04 05:40:34;;;;;;;9.88;4.43;;;;;;;;;;4999432;28;20031;-61
2022/11/04 05:43:00;;;;;;;10.90;4.10;;;;;;;;;;4988180;28;20062;-61
2022/11/04 05:45:26;;;;;;;8.68;3.50;;;;;;;;;;4994739;28;20364;-65
2022/11/04 05:48:03;;;;;;;9.00;2.40;;;;;;;;;;5004732;28;20555;-61
2022/11/04 05:50:30;;;;;;;8.15;2.72;;;;;;;;;;4976166;28;20035;-62
2022/11/04 05:52:57;;;;;;;5.85;2.08;;;;;;;;;;5002846;28;20053;-64
2022/11/04 05:55:23;;;;;;;9.45;2.30;;;;;;;;;;5014408;28;20033;-62
2022/11/04 05:57:48;;;;;;;8.30;2.30;;;;;;;;;;5014137;28;20445;-60
2022/11/04 06:00:14;;;;;;;7.47;2.10;;;;;;;;;;5002707;28;20038;-60
2022/11/04 06:02:40;;;;;;;5.53;2.30;;;;;;;;;;5001953;28;20085;-61
2022/11/04 06:05:06;;;;;;;9.20;2.70;;;;;;;;;;5014116;28;20566;-61
2022/11/04 06:07:31;;;;;;;3.97;2.13;;;;;;;;;;5006082;28;20030;-60
2022/11/04 06:09:56;;;;;;;7.80;2.45;;;;;;;;;;5011506;28;20045;-61
2022/11/04 06:12:22;;;;;;;6.78;2.50;;;;;;;;;;5013475;28;20406;-60
2022/11/04 06:14:47;;;;;;;5.65;2.38;;;;;;;;;;5009688;28;20535;-60
2022/11/04 06:17:15;;;;;;;7.32;2.00;;;;;;;;;;5007170;28;20073;-61
2022/11/04 06:19:41;;;;;;;7.85;2.72;;;;;;;;;;5003665;28;20392;-61
2022/11/04 06:22:07;;;;;;;7.95;2.53;;;;;;;;;;5004257;28;20034;-62
2022/11/04 06:24:32;;;;;;;5.32;2.95;;;;;;;;;;5013420;28;20061;-60
2022/11/04 06:26:58;;;;;;;9.27;2.65;;;;;;;;;;5010393;28;20048;-60
2022/11/04 06:29:23;;;;;;;8.68;2.33;;;;;;;;;;5013452;28;20036;-60
2022/11/04 06:31:49;;;;;;;9.45;2.55;;;;;;;;;;5013416;28;20470;-61
2022/11/04 06:34:14;;;;;;;10.40;2.40;;;;;;;;;;5002146;28;20363;-61
2022/11/04 06:36:40;;;;;;;8.18;2.70;;;;;;;;;;5007177;28;20065;-62
2022/11/04 06:39:05;;;;;;;6.88;2.90;;;;;;;;;;5008267;28;20029;-61
2022/11/04 06:41:31;;;;;;;7.60;2.67;;;;;;;;;;4989712;28;20036;-61
2022/11/04 06:43:56;;;;;;;9.98;2.80;;;;;;;;;;5012284;28;20026;-65
2022/11/04 06:46:32;;;;;;;9.48;2.40;;;;;;;;;;5012780;28;20026;-66
2022/11/04 06:48:57;;;;;;;5.32;2.20;;;;;;;;;;5007776;28;20110;-64
2022/11/04 06:51:24;;;;;;;6.45;2.20;;;;;;;;;;5012516;28;20093;-64
2022/11/04 06:53:49;;;;;;;7.22;2.30;;;;;;;;;;5001691;28;20105;-64
2022/11/04 06:56:15;;;;;;;5.32;2.40;;;;;;;;;;5000381;28;20498;-64
2022/11/04 06:58:41;;;;;;;10.25;2.33;;;;;;;;;;4994745;28;20384;-65
2022/11/04 07:01:06;;;;;;;6.60;2.53;;;;;;;;;;5013176;28;20454;-63
2022/11/04 07:03:31;;;;;;;8.50;2.60;;;;;;;;;;4979979;28;20116;-63
2022/11/04 07:05:57;;;;;;;7.63;2.63;;;;;;;;;;4984534;28;20507;-64
2022/11/04 07:08:22;;;;;;;7.97;2.42;;;;;;;;;;5010176;28;20061;-65
2022/11/04 07:10:48;;;;;;;7.28;2.30;;;;;;;;;;5000340;28;20030;-65
2022/11/04 07:13:15;;;;;;;6.20;2.45;;;;;;;;;;4993988;28;20027;-64
2022/11/04 07:15:41;;;;;;;5.55;2.50;;;;;;;;;;4994285;28;20128;-64
2022/11/04 07:18:06;;;;;;;9.13;2.80;;;;;;;;;;5001296;28;20065;-65
2022/11/04 07:20:33;;;;;;;7.50;3.00;;;;;;;;;;5013024;28;20030;-63
2022/11/04 07:22:58;;;;;;;9.57;2.92;;;;;;;;;;4998197;28;20030;-64
2022/11/04 07:25:23;;;;;;;10.00;2.88;;;;;;;;;;5010014;28;20054;-66
2022/11/04 07:27:49;;;;;;;8.43;2.63;;;;;;;;;;5001667;28;20037;-64
2022/11/04 07:30:14;;;;;;;11.05;2.92;;;;;;;;;;4998728;28;20061;-65
2022/11/04 07:32:40;;;;;;;8.23;2.42;;;;;;;;;;5011413;28;20463;-64
2022/11/04 07:35:05;;;;;;;8.82;2.45;;;;;;;;;;5007641;28;20471;-65
2022/11/04 07:37:31;;;;;;;6.32;2.47;;;;;;;;;;5002259;28;20059;-66
2022/11/04 07:39:56;;;;;;;6.10;2.30;;;;;;;;;;5009552;28;20482;-65
2022/11/04 07:42:21;;;;;;;9.40;2.85;;;;;;;;;;5011904;28;20061;-64
2022/11/04 07:44:47;;;;;;;8.57;2.38;;;;;;;;;;5002320;28;20026;-63
2022/11/04 07:47:13;;;;;;;11.90;2.67;;;;;;;;;;5012122;28;20033;-65
2022/11/04 07:49:38;;;;;;;8.55;2.70;;;;;;;;;;4997847;28;20045;-64
2022/11/04 07:52:04;;;;;;;6.28;2.80;;;;;;;;;;5011956;28;20034;-64
2022/11/04 07:54:29;;;;;;;9.88;2.53;;;;;;;;;;5026908;28;20034;-65
2022/11/04 07:56:54;;;;;;;9.15;2.72;;;;;;;;;;5007372;28;20041;-66
2022/11/04 07:59:20;;;;;;;7.50;2.30;;;;;;;;;;5004094;28;20029;-65
2022/11/04 08:01:45;;;;;;;6.82;2.33;;;;;;;;;;5002795;28;20038;-65
2022/11/04 08:04:10;;;;;;;5.60;2.15;;;;;;;;;;5001566;28;20034;-65
2022/11/04 08:06:36;;;;;;;7.82;2.53;;;;;;;;;;5009180;28;20430;-64
2022/11/04 08:09:01;;;;;;;12.30;2.63;;;;;;;;;;5008795;28;20033;-64
2022/11/04 08:11:27;;;;;;;8.38;2.55;;;;;;;;;;5005600;28;20109;-64
2022/11/04 08:13:54;;;;;;;9.65;2.58;;;;;;;;;;5004079;28;20053;-64
2022/11/04 08:16:21;;;;;;;6.57;2.40;;;;;;;;;;5006759;28;20467;-66
2022/11/04 08:18:47;;;;;;;8.90;2.70;;;;;;;;;;4995357;28;20533;-64
2022/11/04 08:21:14;;;;;;;7.95;3.10;;;;;;;;;;5003478;28;20069;-64
2022/11/04 08:23:39;;;;;;;6.65;2.53;;;;;;;;;;4994203;28;20054;-65
2022/11/04 08:26:16;;;;;;;5.63;2.63;;;;;;;;;;5006757;28;20038;-62
2022/11/04 08:28:42;;;;;;;7.05;2.80;;;;;;;;;;5008919;28;20076;-66
2022/11/04 08:31:11;;;;;;;10.80;2.80;;;;;;;;;;5009344;28;20033;-64
2022/11/04 08:33:37;;;;;;;8.10;2.40;;;;;;;;;;5012168;28;20041;-64
2022/11/04 08:36:16;;;;;;;9.55;2.50;;;;;;;;;;5010118;28;20113;-64
2022/11/04 08:38:41;;;;;;;7.95;2.20;;;;;;;;;;5012199;28;20030;-64
2022/11/04 08:41:08;;;;;;;8.18;2.65;;;;;;;;;;5003439;28;20540;-65
2022/11/04 08:43:34;;;;;;;8.95;2.65;;;;;;;;;;5012142;28;20034;-65
2022/11/04 08:46:01;;;;;;;5.60;2.40;;;;;;;;;;5000475;28;20090;-65
2022/11/04 08:48:26;;;;;;;9.60;2.45;;;;;;;;;;5012093;28;20057;-64
2022/11/04 08:50:54;;;;;;;9.05;2.70;;;;;;;;;;5004482;28;20069;-65
2022/11/04 08:53:20;;;;;;;5.75;2.38;;;;;;;;;;5006308;28;20034;-64
2022/11/04 08:55:45;;;;;;;8.80;2.30;;;;;;;;;;4991167;28;20117;-64
2022/11/04 08:58:11;;;;;;;8.15;3.05;;;;;;;;;;5001470;28;20070;-64
2022/11/04 09:00:37;;;;;;;7.72;2.22;;;;;;;;;;5012134;28;20061;-65
2022/11/04 09:03:03;;;;;;;7.63;2.55;;;;;;;;;;5005869;28;20482;-65
2022/11/04 09:05:28;;;;;;;11.52;2.75;;;;;;;;;;5009892;28;20038;-64
2022/11/04 09:07:54;;;;;;;7.95;2.10;;;;;;;;;;4992347;28;20033;-67
2022/11/04 09:10:20;;;;;;;8.57;2.17;;;;;;;;;;4991977;28;20030;-66
2022/11/04 09:12:45;;;;;;;5.10;2.42;;;;;;;;;;5014432;28;20068;-65
2022/11/04 09:15:12;;;;;;;5.65;2.10;;;;;;;;;;5011413;28;20034;-66
2022/11/04 09:17:37;;;;;;;8.23;2.40;;;;;;;;;;5010892;28;20037;-64
2022/11/04 09:20:04;;;;;;;6.22;2.63;;;;;;;;;;5010250;28;20113;-65
2022/11/04 09:22:30;;;;;;;8.05;2.55;;;;;;;;;;5010360;28;20399;-65
2022/11/04 09:24:56;;;;;;;5.57;2.30;;;;;;;;;;4997179;28;20049;-66
2022/11/04 09:27:21;;;;;;;6.63;2.28;;;;;;;;;;5003260;28;20104;-66
2022/11/04 09:29:47;;;;;;;11.00;2.80;;;;;;;;;;5004549;28;20072;-65
2022/11/04 09:32:12;;;;;;;8.23;2.58;;;;;;;;;;5011404;28;20061;-65
2022/11/04 09:34:37;;;;;;;8.77;2.58;;;;;;;;;;5006922;28;20038;-65
2022/11/04 09:37:03;;;;;;;7.80;2.40;;;;;;;;;;5008496;28;20040;-66
2022/11/04 09:39:28;;;;;;;9.82;2.90;;;;;;;;;;5010148;28;20022;-66
2022/11/04 09:42:12;;;;;;;8.05;2.45;;;;;;;;;;5010847;28;20030;-66
2022/11/04 09:44:59;;;;;;;8.93;2.60;;;;;;;;;;4990953;28;20034;-65
2022/11/04 09:47:25;;;;;;;7.45;2.42;;;;;;;;;;4989641;28;20030;-65
2022/11/04 09:49:56;;;;;;;9.85;2.75;;;;;;;;;;5001496;28;20026;-64
2022/11/04 09:52:28;;;;;;;9.52;2.63;;;;;;;;;;5011939;28;20352;-66
2022/11/04 09:54:57;;;;;;;11.65;2.60;;;;;;;;;;5001952;28;20038;-65
2022/11/04 09:57:23;;;;;;;7.57;2.38;;;;;;;;;;5013096;28;20042;-65
2022/11/04 09:59:48;;;;;;;8.10;2.50;;;;;;;;;;5005271;28;20041;-64
2022/11/04 10:02:33;;;;;;;8.10;2.75;;;;;;;;;;4998845;28;20030;-66
2022/11/04 10:05:25;;;;;;;6.13;2.70;;;;;;;;;;5000182;28;20089;-66
2022/11/04 10:07:59;;;;;;;;;;;;;;;;;;5002927;28;20056;-61
2022/11/04 10:10:55;;;;;;;9.13;2.55;;;;;;;;;;5004695;28;20342;-65
2022/11/04 10:13:29;;;;;;;7.13;2.50;;;;;;;;;;4993636;28;20033;-65
2022/11/04 10:16:05;;;;;;;9.60;2.50;;;;;;;;;;5001608;28;20052;-64
2022/11/04 10:18:58;;;;;;;7.50;2.83;;;;;;;;;;5022570;28;20034;-64
2022/11/04 10:21:56;;;;;;;9.52;2.63;;;;;;;;;;5006770;28;20034;-65
2022/11/04 10:24:39;;;;;;;7.22;2.58;;;;;;;;;;4982602;28;20046;-66
2022/11/04 10:27:15;;;;;;;8.15;2.72;;;;;;;;;;5004555;28;20040;-66
2022/11/04 10:29:43;;;;;;;10.00;2.75;;;;;;;;;;5009947;28;20034;-66
2022/11/04 10:32:44;;;;;;;6.45;2.50;;;;;;;;;;5008185;28;20185;-66
2022/11/04 10:35:30;;;;;;;;;;;;;;;;;;4999319;28;20105;-63
2022/11/04 10:38:00;;;;;;;9.02;2.65;;;;;;;;;;5011339;28;19935;-64
2022/11/04 10:40:31;;;;;;;7.97;2.55;;;;;;;;;;5014592;28;20455;-65
2022/11/04 10:43:01;;;;;;;8.98;2.72;;;;;;;;;;5010831;28;20026;-65
2022/11/04 10:45:35;;;;;;;9.25;2.88;;;;;;;;;;5009928;28;20482;-66
2022/11/04 10:48:11;;;;;;;5.00;2.17;;;;;;;;;;4999529;28;20379;-64
2022/11/04 10:50:57;;;;;;;7.78;2.58;;;;;;;;;;4990671;28;20030;-66
2022/11/04 10:53:29;;;;;;;8.07;1.98;;;;;;;;;;4997505;28;20034;-66
2022/11/04 10:56:08;;;;;;;13.82;3.13;;;;;;;;;;4995521;28;20372;-66
2022/11/04 10:58:45;;;;;;;6.65;2.55;;;;;;;;;;4993782;28;20068;-65
2022/11/04 11:01:28;;;;;;;8.02;2.67;;;;;;;;;;4993138;28;20522;-64
2022/11/04 11:03:54;;;;;;;9.50;3.15;;;;;;;;;;5007682;28;20042;-65
2022/11/04 11:06:23;;;;;;;7.75;2.65;;;;;;;;;;5013780;28;20053;-65
2022/11/04 11:08:49;;;;;;;7.47;2.88;;;;;;;;;;5008608;28;20033;-65
2022/11/04 11:11:15;;;;;;;7.32;2.58;;;;;;;;;;4976670;28;20035;-64
2022/11/04 11:13:44;;;;;;;10.25;2.88;;;;;;;;;;4974689;28;20089;-65
2022/11/04 11:16:24;;;;;;;6.43;2.40;;;;;;;;;;4973725;28;20121;-64
2022/11/04 11:19:08;;;;;;;7.03;2.47;;;;;;;;;;5000312;28;20038;-65
2022/11/04 11:21:47;;;;;;;6.65;2.47;;;;;;;;;;5013883;28;20355;-64
2022/11/04 11:24:29;;;;;;;11.20;2.47;;;;;;;;;;5012253;28;20124;-65
2022/11/04 11:27:00;;;;;;;10.82;2.90;;;;;;;;;;5012502;28;20022;-64
2022/11/04 11:29:28;;;;;;;8.75;2.65;;;;;;;;;;5009426;28;20029;-64
2022/11/04 11:31:55;;;;;;;9.18;2.75;;;;;;;;;;4993194;28;20130;-64
2022/11/04 11:34:33;;;;;;;7.80;2.90;;;;;;;;;;4992115;28;20038;-65
2022/11/04 11:37:04;;;;;;;11.02;2.58;;;;;;;;;;5011813;28;20049;-66
2022/11/04 11:39:31;;;;;;;11.98;2.70;;;;;;;;;;5013209;28;20026;-65
2022/11/04 11:42:03;;;;;;;9.15;2.72;;;;;;;;;;5012325;28;20030;-65
2022/11/04 11:44:31;;;;;;;7.57;2.90;;;;;;;;;;5012838;28;20034;-64
2022/11/04 11:47:30;;;;;;;9.00;2.80;;;;;;;;;;5012334;28;20029;-65
2022/11/04 11:50:18;;;;;;;9.10;3.00;;;;;;;;;;5008342;28;20042;-64
2022/11/04 11:52:47;;;;;;;10.70;3.10;;;;;;;;;;5008030;28;20049;-64
2022/11/04 11:55:16;;;;;;;9.02;3.92;;;;;;;;;;5009397;28;20222;-64
2022/11/04 11:57:53;;;;;;;12.30;3.55;;;;;;;;;;5008680;28;20041;-64
2022/11/04 12:00:21;;;;;;;11.07;3.83;;;;;;;;;;4985410;28;20040;-64
2022/11/04 12:02:50;;;;;;;8.13;3.25;;;;;;;;;;4991253;28;20041;-63
2022/11/04 12:05:18;;;;;;;10.43;3.13;;;;;;;;;;4999067;28;20029;-65
2022/11/04 12:08:05;;;;;;;10.02;3.85;;;;;;;;;;4999497;28;20088;-64
2022/11/04 12:10:57;;;;;;;6.38;3.20;;;;;;;;;;5004887;28;20038;-65
2022/11/04 12:13:27;;;;;;;10.88;3.78;;;;;;;;;;4992785;28;20475;-65
2022/11/04 12:16:11;;;;;;;10.77;3.92;;;;;;;;;;4995977;28;20042;-64
2022/11/04 12:19:14;;;;;;;12.18;4.10;;;;;;;;;;5007719;28;20378;-65
2022/11/04 12:21:47;;;;;;;14.60;4.38;;;;;;;;;;5000303;28;20475;-63
2022/11/04 12:24:31;;;;;;;13.50;5.10;;;;;;;;;;4993005;28;20046;-65
2022/11/04 12:27:06;;;;;;;13.48;5.03;;;;;;;;;;5000601;28;20030;-64
2022/11/04 12:29:59;;;;;;;12.07;4.63;;;;;;;;;;5004628;28;20026;-65
2022/11/04 12:32:43;;;;;;;9.75;4.47;;;;;;;;;;5003325;28;20072;-64
2022/11/04 12:35:44;;;;;;;13.48;4.38;;;;;;;;;;4998523;28;20060;-65
2022/11/04 12:38:25;;;;;;;12.18;3.83;;;;;;;;;;5002035;28;20022;-65
2022/11/04 12:40:57;;;;;;;10.93;3.33;;;;;;;;;;5011137;28;20041;-64
2022/11/04 12:43:55;;;;;;;11.23;3.63;;;;;;;;;;4999749;28;20104;-65
2022/11/04 12:46:49;;;;;;;13.68;3.40;;;;;;;;;;4957734;28;20039;-64
2022/11/04 12:49:40;;;;;;;8.88;3.00;;;;;;;;;;4983766;28;20046;-64
2022/11/04 12:52:37;;;;;;;12.50;3.37;;;;;;;;;;4991089;28;20026;-65
2022/11/04 12:55:33;;;;;;;11.75;3.58;;;;;;;;;;4981985;28;20459;-63
2022/11/04 12:58:17;;;;;;;10.07;3.72;;;;;;;;;;4997360;28;20030;-65
2022/11/04 13:00:47;;;;;;;10.52;3.70;;;;;;;;;;4992190;28;20557;-65
2022/11/04 13:03:22;;;;;;;9.38;3.83;;;;;;;;;;4999374;28;20034;-64
2022/11/04 13:05:55;;;;;;;11.02;3.72;;;;;;;;;;4999225;28;20049;-64
2022/11/04 13:08:40;;;;;;;14.52;3.35;;;;;;;;;;4989905;28;20105;-64
2022/11/04 13:11:21;;;;;;;10.02;3.15;;;;;;;;;;4991355;28;20030;-64
2022/11/04 13:13:57;;;;;;;11.95;4.68;;;;;;;;;;4992246;28;20038;-64
2022/11/04 13:16:22;;;;;;;10.43;3.78;;;;;;;;;;5010474;28;20042;-65
2022/11/04 13:18:49;;;;;;;10.50;3.33;;;;;;;;;;5027395;28;20029;-65
2022/11/04 13:21:26;;;;;;;9.80;3.42;;;;;;;;;;4991476;28;20033;-66
2022/11/04 13:24:16;;;;;;;10.18;3.55;;;;;;;;;;4991543;28;20499;-64
2022/11/04 13:26:41;;;;;;;13.38;3.30;;;;;;;;;;4991995;28;20035;-65
2022/11/04 13:29:13;;;;;;;10.20;3.35;;;;;;;;;;4991331;28;20026;-65
2022/11/04 13:31:53;;;;;;;8.48;3.42;;;;;;;;;;4986221;28;20031;-65
2022/11/04 13:34:36;;;;;;;7.95;3.20;;;;;;;;;;4975635;28;20042;-64
2022/11/04 13:37:20;;;;;;;8.38;3.35;;;;;;;;;;4975860;28;20027;-63
2022/11/04 13:39:53;;;;;;;10.52;3.60;;;;;;;;;;4976552;28;20468;-64
2022/11/04 13:42:41;;;;;;;8.52;3.90;;;;;;;;;;4988281;28;20084;-64
2022/11/04 13:45:12;;;;;;;10.38;4.10;;;;;;;;;;4995650;28;20042;-66
2022/11/04 13:47:56;;;;;;;10.38;4.40;;;;;;;;;;4994527;28;20030;-64
2022/11/04 13:50:35;;;;;;;8.98;4.57;;;;;;;;;;4994894;28;20618;-64
2022/11/04 13:53:02;;;;;;;9.85;4.47;;;;;;;;;;4995593;28;20035;-64
2022/11/04 13:55:27;;;;;;;11.73;4.80;;;;;;;;;;4995266;28;20042;-64
2022/11/04 13:57:54;;;;;;;15.15;5.72;;;;;;;;;;4995286;28;20042;-64
2022/11/04 14:00:24;;;;;;;10.98;5.10;;;;;;;;;;4993431;28;20034;-64
2022/11/04 14:02:51;;;;;;;10.20;4.55;;;;;;;;;;4995547;28;20026;-64
2022/11/04 14:05:26;;;;;;;11.60;5.03;;;;;;;;;;4994531;28;20117;-63
2022/11/04 14:08:00;;;;;;;10.88;4.85;;;;;;;;;;4995896;28;20065;-63
2022/11/04 14:10:47;;;;;;;11.70;5.18;;;;;;;;;;5008779;28;20065;-66
2022/11/04 14:13:36;;;;;;;14.02;5.07;;;;;;;;;;5012177;28;20033;-66
2022/11/04 14:16:23;;;;;;;13.05;5.15;;;;;;;;;;4987225;28;20506;-64
2022/11/04 14:18:50;;;;;;;11.23;4.75;;;;;;;;;;5014690;28;20041;-65
2022/11/04 14:21:21;;;;;;;8.45;4.10;;;;;;;;;;4990352;28;20149;-64
2022/11/04 14:23:48;;;;;;;9.55;3.85;;;;;;;;;;5010164;28;20050;-65
2022/11/04 14:26:17;;;;;;;13.52;4.30;;;;;;;;;;5013524;28;20037;-63
2022/11/04 14:28:46;;;;;;;10.23;4.07;;;;;;;;;;5012288;28;20030;-65
2022/11/04 14:31:32;;;;;;;9.85;4.28;;;;;;;;;;5004359;28;20033;-63
2022/11/04 14:33:58;;;;;;;13.05;4.32;;;;;;;;;;4992663;28;20030;-64
2022/11/04 14:36:27;;;;;;;9.75;4.03;;;;;;;;;;4998213;28;20040;-65
2022/11/04 14:39:12;;;;;;;8.40;3.83;;;;;;;;;;5014517;28;20034;-62
2022/11/04 14:41:52;;;;;;;11.85;3.72;;;;;;;;;;5013251;28;20066;-63
2022/11/04 14:44:29;;;;;;;9.32;4.05;;;;;;;;;;5011993;28;20113;-63
2022/11/04 14:46:59;;;;;;;9.90;3.83;;;;;;;;;;5007551;28;20125;-65
2022/11/04 14:49:50;;;;;;;9.07;4.00;;;;;;;;;;4998634;28;20018;-63
2022/11/04 14:52:20;;;;;;;10.45;4.40;;;;;;;;;;5000233;28;20030;-63
2022/11/04 14:54:46;;;;;;;9.18;4.45;;;;;;;;;;5008245;28;20045;-63
2022/11/04 14:57:17;;;;;;;15.75;5.28;;;;;;;;;;4993520;28;20034;-64
2022/11/04 14:59:43;;;;;;;11.25;4.35;;;;;;;;;;4981004;28;20034;-62
2022/11/04 15:02:24;;;;;;;9.90;4.05;;;;;;;;;;4974206;28;20041;-63
2022/11/04 15:04:55;;;;;;;9.43;4.22;;;;;;;;;;5000652;28;20038;-62
2022/11/04 15:07:29;;;;;;;7.90;3.85;;;;;;;;;;4998802;28;20089;-62
2022/11/04 15:09:55;;;;;;;9.40;4.10;;;;;;;;;;5005674;28;20480;-62
2022/11/04 15:15:25;;;;;;;13.18;4.82;;;;;;;;;;5013331;28;20045;-63
2022/11/04 15:17:52;;;;;;;11.52;4.50;;;;;;;;;;5009149;28;20838;-63
2022/11/04 15:20:23;;;;;;;11.27;4.40;;;;;;;;;;5011676;28;20049;-62
2022/11/04 15:22:51;;;;;;;10.77;4.68;;;;;;;;;;5010449;28;20040;-62
2022/11/04 15:25:17;;;;;;;14.60;4.68;;;;;;;;;;4994829;28;20411;-64
2022/11/04 15:27:43;;;;;;;15.50;5.00;;;;;;;;;;5009849;28;20072;-63
2022/11/04 15:30:27;;;;;;;11.55;5.00;;;;;;;;;;5008523;28;20113;-63
2022/11/04 15:33:01;;;;;;;14.48;5.05;;;;;;;;;;5012809;28;20034;-63
2022/11/04 15:35:29;;;;;;;12.68;4.88;;;;;;;;;;5003958;28;20048;-63
2022/11/04 15:37:56;;;;;;;10.18;4.90;;;;;;;;;;5010506;28;20384;-61
2022/11/04 15:40:24;;;;;;;14.43;5.07;;;;;;;;;;5002320;28;20118;-62
2022/11/04 15:42:49;;;;;;;14.32;4.97;;;;;;;;;;5010891;28;20108;-63